Portada
METAR-TAF:

METAR-TAF

Aeroports :

Kars, Turquia

latitud: 40-36N, longitud: 043-05E, altitud: 1775 m

Observació

L'informe es va fer fa 1 hora i 15 minuts, a les 20:50 UTC
Vent 4 kt del Oest/Sud-Oest
Temperatura -4°C
Humitat 93%
Pressió 1026 hPa
Visibilitat 10 km o més
Núvols disperses a una alçada de 2500 ft
Cel cobert a una alçada de 7000 ft

METAR: LTCF 182050Z 24004KT 9999 SCT025 OVC070 M04/M05 Q1026

Hora: 01:05 (22:05 UTC)

Pronòstic

L'informe es va fer fa 2 hores i 25 minuts, a les 19:40 UTC
Pronòstic vàlid del 18 a les 21 UTC al 19 a les 06 UTC
Vent 2 kt amb direcció variable
Visibilitat 10 km o més
Núvols disperses a una alçada de 2500 ft
Cel cobert a una alçada de 7000 ft

TAF: LTCF 181940Z 1821/1906 VRB02KT 9999 SCT025 OVC070

Observacions i pronòstics meteorològics de més de 4000 aeroports (METAR i TAF).

Les estacions disponibles són els punts grocs i vermells al mapa.

Posi el ratolí al punt desitjat per veure el nom de l'estació.

Feu clic per veure les observacions i els pronòstics meteorològics.

Per canviar el mapa: feu clic els botons verds amb una creu de color negre per apropar; al botó verd amb un guió per allunyar la imatge; o en les fletxes verdes per a mapes adjacents.


METAR-TAF: